Terminal Aerodrome Forecast
Issued by NWS Sioux Falls, SD

Home | Current Version | Previous Version | Text Only | Print | Product List | Glossary Off
Versions: 1 2 3 4 5 6 7 8 9 10 11 12 13 14 15

066
FTUS43 KFSD 191742
TAFHON
TAF
KHON 191742Z 1918/2018 15019G27KT P6SM BKN015
     FM192000 15019G27KT P6SM BKN025
     FM192100 15019G27KT P6SM BKN035
      TEMPO 1922/1924 6SM -TSRA BKN035CB
     FM200000 19014KT P6SM BKN150
     FM200200 24014KT 4SM TSRA OVC040CB
     FM200300 31014G18KT P6SM BKN110
     FM201700 26010KT P6SM SKC=

USA.gov is the U.S. government's official web portal to all federal, state and local government web resources and services.